Tioga, North Dakota
Current Conditions -  °F | °C
As of 9:15 PM on Friday 28 Nov 2014 (Local Time) from KD60 Reporting Station
Clear Clear  
Wind Chill:   Ceiling: Unl
Heat Index: 16°   Visibility: 7mi
Dew Point: 16°   Wind: 6mph
Humidity: 100%   Direction: 50°NE
Pressure: 29.43"   Gusts: NA
Location:  48.4°N, 102.94°W
Report Text: KD60 290315Z AUTO 05005KT 7SM CLR M09/M09 A2943 RMK AO2
Loading
Personal Weather Stations






























Interactive Weather Map New forecast layout! Learn more

10-Day Weather Forecast

Advertisements
Track Severe Weather on mobile